This is the latest recevied weather packets stored in our database for station/object N8DNY-13. If no packets are shown the sender has not sent any weather packets the latest 10 day(s).
| Time | Temp. | Humidity | Pressure | Rain* | Wind** | Luminosity | Snow |
|---|---|---|---|---|---|---|---|
| 1777851610 | 12.78° C | 59% | 1015.6 hPa | 0 mm | - | 14 W/m² | - |
| 1777847982 | 15.56° C | 50% | 1015.3 hPa | 0 mm | - | 61 W/m² | - |
| 1777845263 | 18.33° C | 39% | 1015.1 hPa | 0 mm | - | 252 W/m² | - |
| 1777843450 | 17.22° C | 41% | 1015.3 hPa | 0 mm | - | 167 W/m² | - |
| 1777841640 | 19.44° C | 35% | 1015.2 hPa | 0 mm | - | 425 W/m² | - |
| 1777838946 | 19.44° C | 36% | 1015.8 hPa | 0 mm | - | 567 W/m² | - |
| 1777830813 | 18.89° C | 33% | 1017.5 hPa | 0 mm | - | 886 W/m² | - |
| 1777829910 | 19.44° C | 32% | 1017.4 hPa | 0 mm | - | 986 W/m² | - |
| 1777829030 | 17.78° C | 35% | 1017.9 hPa | 0 mm | - | 427 W/m² | - |
| 1777823927 | 17.22° C | 39% | 1018.7 hPa | 0 mm | - | 731 W/m² | - |
| 1777823019 | 16.67° C | 42% | 1018.8 hPa | 0 mm | - | 715 W/m² | - |
| 1777821211 | 16.67° C | 43% | 1019 hPa | 0 mm | - | 669 W/m² | - |
| 1777817587 | 13.33° C | 46% | 1019.5 hPa | 0 mm | - | 532 W/m² | - |
| 1777808543 | 5° C | 64% | 1019.8 hPa | 0 mm | - | 51 W/m² | - |
| 1777806737 | 3.89° C | 68% | 1019.5 hPa | 0 mm | - | 28 W/m² | - |
| 1777798587 | 2.22° C | 75% | 1019.8 hPa | 0 mm | - | 0 W/m² | - |
| 1777791341 | 2.22° C | 76% | 1020.3 hPa | 0 mm | - | 0 W/m² | - |
| 1777789554 | 1.67° C | 80% | 1020.6 hPa | 0 mm | - | 0 W/m² | - |
| 1777786846 | 2.78° C | 78% | 1020.6 hPa | 0 mm | - | 0 W/m² | - |
| 1777771446 | 6.67° C | 59% | 1020.7 hPa | 0 mm | - | 0 W/m² | - |
| 1777767828 | 8.33° C | 49% | 1020.7 hPa | 0 mm | - | 5 W/m² | - |
| 1777760578 | 10° C | 42% | 1020.8 hPa | 0 mm | - | 118 W/m² | - |
| 1777756054 | 10.56° C | 45% | 1020.9 hPa | 0 mm | - | 171 W/m² | - |
| 1777751522 | 10.56° C | 47% | 1021.2 hPa | 0 mm | - | 372 W/m² | - |
| 1777743387 | 10.56° C | 49% | 1022.2 hPa | 0 mm | - | 435 W/m² | - |
* Rain latest hour (hover to see other rain measurements)
** Current wind speed in m/s (hover to see current wind gust speed)